createdAt,value
2022-11-19T00:01:13.443Z,5.70
2022-11-19T00:03:41.226Z,5.70
2022-11-19T00:06:09.820Z,5.70
2022-11-19T00:08:36.985Z,5.70
2022-11-19T00:11:41.019Z,5.60
2022-11-19T00:14:12.778Z,5.60
2022-11-19T00:16:39.590Z,5.60
2022-11-19T00:19:06.328Z,5.60
2022-11-19T00:21:33.347Z,5.60
2022-11-19T00:23:59.998Z,5.60
2022-11-19T00:26:26.955Z,5.60
2022-11-19T00:28:54.760Z,5.60
2022-11-19T00:31:21.671Z,5.60
2022-11-19T00:33:50.972Z,5.70
2022-11-19T00:36:17.979Z,5.70
2022-11-19T00:38:44.858Z,5.70
2022-11-19T00:41:11.780Z,5.70
2022-11-19T00:43:47.809Z,5.70
2022-11-19T00:46:24.729Z,5.70
2022-11-19T00:48:53.292Z,5.70
2022-11-19T00:51:21.348Z,5.70
2022-11-19T00:53:48.582Z,5.70
2022-11-19T00:56:17.766Z,5.70
2022-11-19T00:58:45.270Z,5.70
2022-11-19T01:01:13.974Z,5.70
2022-11-19T01:03:41.578Z,5.70
2022-11-19T01:06:09.386Z,5.70
2022-11-19T01:08:36.572Z,5.70
2022-11-19T01:11:11.655Z,5.60
2022-11-19T01:13:38.640Z,5.60
2022-11-19T01:16:12.022Z,5.50
2022-11-19T01:18:39.612Z,5.50
2022-11-19T01:21:07.441Z,5.50
2022-11-19T01:23:34.739Z,5.50
2022-11-19T01:26:01.719Z,5.50
2022-11-19T01:28:28.723Z,5.50
2022-11-19T01:30:55.434Z,5.50
2022-11-19T01:33:22.607Z,5.60
2022-11-19T01:36:00.111Z,5.60
2022-11-19T01:38:27.881Z,5.60
2022-11-19T01:40:55.941Z,5.60
2022-11-19T01:43:43.700Z,5.70
2022-11-19T01:46:11.745Z,5.70
2022-11-19T01:48:44.381Z,5.70
2022-11-19T01:51:19.977Z,5.70
2022-11-19T01:53:48.221Z,5.70
2022-11-19T01:56:15.466Z,5.80
2022-11-19T01:58:45.312Z,5.80
2022-11-19T02:01:12.204Z,5.90
2022-11-19T02:03:39.937Z,5.90
2022-11-19T02:06:07.317Z,5.90
2022-11-19T02:08:45.603Z,5.90
2022-11-19T02:11:26.238Z,5.90
2022-11-19T02:14:21.633Z,5.90
2022-11-19T02:17:16.539Z,5.80
2022-11-19T02:20:13.400Z,5.90
2022-11-19T02:22:40.087Z,5.90
2022-11-19T02:25:12.968Z,5.90
2022-11-19T02:27:48.519Z,5.90
2022-11-19T02:30:19.385Z,5.90
2022-11-19T02:33:07.991Z,5.90
2022-11-19T02:35:43.484Z,5.90
2022-11-19T02:38:13.686Z,5.90
2022-11-19T02:40:50.788Z,6.00
2022-11-19T02:43:41.036Z,5.90
2022-11-19T02:46:15.297Z,5.90
2022-11-19T02:48:52.114Z,5.90
2022-11-19T02:51:19.055Z,5.90
2022-11-19T02:53:48.897Z,5.90
2022-11-19T02:56:48.832Z,6.00
2022-11-19T02:59:36.276Z,6.00
2022-11-19T03:02:23.769Z,6.00
2022-11-19T03:04:50.486Z,6.00
2022-11-19T03:07:18.497Z,6.00
2022-11-19T03:09:54.469Z,6.00
2022-11-19T03:12:45.252Z,5.90
2022-11-19T03:15:42.691Z,5.90
2022-11-19T03:18:32.944Z,5.90
2022-11-19T03:21:23.349Z,5.90
2022-11-19T03:23:55.546Z,5.90
2022-11-19T03:26:49.479Z,5.90
2022-11-19T03:29:16.376Z,5.90
2022-11-19T03:31:49.935Z,5.90
2022-11-19T03:34:22.088Z,5.90
2022-11-19T03:36:51.048Z,5.90
2022-11-19T03:39:19.734Z,5.90
2022-11-19T03:41:48.680Z,5.90
2022-11-19T03:44:16.724Z,5.90
2022-11-19T03:46:44.597Z,5.90
2022-11-19T03:49:13.242Z,5.90
2022-11-19T03:52:16.137Z,5.90
2022-11-19T03:54:43.042Z,5.90
2022-11-19T03:57:12.909Z,5.90
2022-11-19T03:59:39.742Z,5.90
2022-11-19T04:02:08.850Z,5.90
2022-11-19T04:04:36.906Z,5.90
2022-11-19T04:07:07.816Z,5.90
2022-11-19T04:09:35.008Z,5.90
2022-11-19T04:12:02.053Z,5.90
2022-11-19T04:14:28.909Z,5.90
2022-11-19T04:16:56.232Z,5.90
2022-11-19T04:19:23.277Z,6.70
2022-11-19T04:21:50.397Z,5.90
2022-11-19T04:24:17.392Z,5.90
2022-11-19T04:26:44.275Z,5.90
2022-11-19T04:29:11.225Z,5.90
2022-11-19T04:31:37.921Z,5.90
2022-11-19T04:34:04.681Z,5.90
2022-11-19T04:36:31.345Z,5.90
2022-11-19T04:38:58.057Z,5.90
2022-11-19T04:41:24.778Z,5.90
2022-11-19T04:43:51.442Z,5.90
2022-11-19T04:46:18.191Z,5.90
2022-11-19T04:48:45.121Z,5.90
2022-11-19T04:51:11.845Z,5.90
2022-11-19T04:53:38.554Z,5.90
2022-11-19T04:56:06.030Z,5.90
2022-11-19T04:58:32.942Z,5.90
2022-11-19T05:00:59.629Z,5.90
2022-11-19T05:03:26.331Z,5.90
2022-11-19T05:05:53.046Z,5.80
2022-11-19T05:08:19.857Z,5.80
2022-11-19T05:10:46.539Z,5.90
2022-11-19T05:13:13.269Z,5.80
2022-11-19T05:15:39.954Z,5.90
2022-11-19T05:18:07.058Z,5.80
2022-11-19T05:20:33.741Z,5.90
2022-11-19T05:23:00.520Z,5.80
2022-11-19T05:25:27.235Z,5.80
2022-11-19T05:27:54.266Z,5.90
2022-11-19T05:30:20.947Z,5.80
2022-11-19T05:32:47.808Z,5.90
2022-11-19T05:35:14.599Z,5.80
2022-11-19T05:37:41.300Z,5.90
2022-11-19T05:40:08.577Z,5.80
2022-11-19T05:42:35.261Z,5.90
2022-11-19T05:45:01.984Z,5.80
2022-11-19T05:47:28.673Z,5.80
2022-11-19T05:49:55.356Z,5.70
2022-11-19T05:52:22.045Z,5.70
2022-11-19T05:54:48.751Z,5.70
2022-11-19T05:57:15.451Z,5.70
2022-11-19T05:59:44.015Z,5.70
2022-11-19T06:02:11.555Z,5.60
2022-11-19T06:04:38.368Z,5.60
2022-11-19T06:07:05.155Z,5.60
2022-11-19T06:09:32.530Z,5.50
2022-11-19T06:11:59.327Z,5.50
2022-11-19T06:14:27.122Z,5.50
2022-11-19T06:16:59.141Z,5.50
2022-11-19T06:19:26.534Z,5.50
2022-11-19T06:21:53.546Z,5.50
2022-11-19T06:24:21.304Z,5.60
2022-11-19T06:26:48.194Z,5.60
2022-11-19T06:29:16.131Z,5.60
2022-11-19T06:31:42.838Z,5.60
2022-11-19T06:34:10.428Z,5.60
2022-11-19T06:36:41.191Z,5.70
2022-11-19T06:39:09.986Z,5.70
2022-11-19T06:41:37.110Z,5.70
2022-11-19T06:44:04.059Z,5.70
2022-11-19T06:46:31.187Z,5.70
2022-11-19T06:48:57.882Z,5.70
2022-11-19T06:51:24.755Z,5.70
2022-11-19T06:53:51.663Z,5.70
2022-11-19T06:56:18.335Z,5.60
2022-11-19T06:58:45.170Z,5.70
2022-11-19T07:01:12.049Z,5.70
2022-11-19T07:03:38.794Z,5.70
2022-11-19T07:06:05.836Z,5.70
2022-11-19T07:08:36.718Z,5.70
2022-11-19T07:11:24.017Z,5.80
2022-11-19T07:13:57.607Z,5.80
2022-11-19T07:16:25.800Z,5.80
2022-11-19T07:18:52.590Z,5.80
2022-11-19T07:21:19.396Z,5.90
2022-11-19T07:23:46.099Z,5.80
2022-11-19T07:26:13.953Z,5.90
2022-11-19T07:28:40.617Z,5.80
2022-11-19T07:31:07.974Z,5.80
2022-11-19T07:33:36.039Z,5.80
2022-11-19T07:36:02.991Z,5.80
2022-11-19T07:38:34.135Z,5.80
2022-11-19T07:41:24.490Z,5.70
2022-11-19T07:43:51.585Z,5.70
2022-11-19T07:46:18.281Z,5.70
2022-11-19T07:48:45.064Z,5.70
2022-11-19T07:51:11.969Z,5.70
2022-11-19T07:53:38.690Z,5.70
2022-11-19T07:56:05.651Z,5.80
2022-11-19T07:58:32.667Z,5.80
2022-11-19T08:00:59.361Z,5.90
2022-11-19T08:03:26.049Z,6.00
2022-11-19T08:05:52.768Z,6.10
2022-11-19T08:08:19.786Z,6.20
2022-11-19T08:10:46.476Z,6.20
2022-11-19T08:13:13.152Z,6.30
2022-11-19T08:15:39.837Z,6.30
2022-11-19T08:18:12.558Z,6.30
2022-11-19T08:20:43.456Z,6.40
2022-11-19T08:23:10.946Z,6.50
2022-11-19T08:25:38.265Z,6.70
2022-11-19T08:28:05.413Z,6.70
2022-11-19T08:30:32.734Z,6.90
2022-11-19T08:32:59.642Z,6.90
2022-11-19T08:35:26.396Z,6.90
2022-11-19T08:37:53.091Z,6.90
2022-11-19T08:40:19.807Z,6.80
2022-11-19T08:43:01.649Z,6.80
2022-11-19T08:45:32.521Z,6.60
2022-11-19T08:48:01.134Z,6.60
2022-11-19T08:50:29.190Z,6.50
2022-11-19T08:53:01.147Z,6.50
2022-11-19T08:55:29.808Z,6.40
2022-11-19T08:58:00.959Z,6.40
2022-11-19T09:00:27.746Z,6.40
2022-11-19T09:02:54.851Z,6.40
2022-11-19T09:05:21.656Z,6.40
2022-11-19T09:07:48.382Z,6.60
2022-11-19T09:10:16.138Z,6.70
2022-11-19T09:12:42.854Z,6.90
2022-11-19T09:15:10.360Z,7.00
2022-11-19T09:17:40.135Z,7.10
2022-11-19T09:20:09.491Z,7.10
2022-11-19T09:22:36.341Z,7.10
2022-11-19T09:25:03.623Z,7.00
2022-11-19T09:27:30.455Z,7.00
2022-11-19T09:29:57.150Z,6.90
2022-11-19T09:32:25.567Z,6.80
2022-11-19T09:34:52.436Z,6.70
2022-11-19T09:37:19.238Z,6.70
2022-11-19T09:39:46.075Z,6.70
2022-11-19T09:42:22.254Z,6.80
2022-11-19T09:45:16.905Z,6.80
2022-11-19T09:47:46.967Z,7.00
2022-11-19T09:50:20.049Z,7.10
2022-11-19T09:53:07.525Z,7.40
2022-11-19T09:55:40.569Z,7.70
2022-11-19T09:58:14.500Z,7.80
2022-11-19T10:00:43.591Z,7.80
2022-11-19T10:03:18.819Z,7.80
2022-11-19T10:05:51.410Z,7.80
2022-11-19T10:08:31.002Z,7.80
2022-11-19T10:11:16.694Z,7.70
2022-11-19T10:13:56.634Z,7.60
2022-11-19T10:17:02.002Z,7.50
2022-11-19T10:19:47.035Z,7.40
2022-11-19T10:22:44.312Z,7.30
2022-11-19T10:25:17.803Z,7.30
2022-11-19T10:27:50.742Z,7.40
2022-11-19T10:30:23.517Z,7.30
2022-11-19T10:32:59.373Z,7.20
2022-11-19T10:35:30.516Z,7.20
2022-11-19T10:37:59.989Z,7.20
2022-11-19T10:40:33.405Z,7.20
2022-11-19T10:43:13.959Z,7.20
2022-11-19T10:45:40.664Z,7.20
2022-11-19T10:48:24.925Z,7.30
2022-11-19T10:50:52.277Z,7.30
2022-11-19T10:53:29.170Z,7.40
2022-11-19T10:56:05.065Z,7.40
2022-11-19T10:58:53.365Z,7.20
2022-11-19T11:01:33.703Z,7.20
2022-11-19T11:04:21.490Z,7.10
2022-11-19T11:06:55.599Z,6.90
2022-11-19T11:09:34.799Z,6.80
2022-11-19T11:12:36.924Z,6.80
2022-11-19T11:15:18.617Z,6.80
2022-11-19T11:17:49.250Z,6.90
2022-11-19T11:20:15.984Z,6.80
2022-11-19T11:22:46.501Z,6.80
2022-11-19T11:25:23.585Z,6.80
2022-11-19T11:28:14.431Z,6.80
2022-11-19T11:31:02.002Z,6.90
2022-11-19T11:33:38.485Z,6.90
2022-11-19T11:36:11.847Z,7.00
2022-11-19T11:38:46.371Z,7.10
2022-11-19T11:44:19.873Z,7.40
2022-11-19T11:46:48.259Z,7.40
2022-11-19T11:49:33.061Z,7.40
2022-11-19T11:52:07.039Z,7.40
2022-11-19T11:54:33.977Z,7.30
2022-11-19T11:57:19.825Z,7.40
2022-11-19T11:59:46.908Z,7.50
2022-11-19T12:02:34.838Z,7.50
2022-11-19T12:05:05.516Z,7.40
2022-11-19T12:07:35.305Z,7.30
2022-11-19T12:10:08.253Z,7.20
2022-11-19T12:12:44.028Z,7.10
2022-11-19T12:15:19.872Z,7.10
2022-11-19T12:17:50.342Z,7.00
2022-11-19T12:20:23.563Z,7.00
2022-11-19T12:23:22.493Z,6.90
2022-11-19T12:25:57.621Z,6.90
2022-11-19T12:29:09.517Z,6.80
2022-11-19T12:32:03.935Z,6.80
2022-11-19T12:34:44.404Z,6.80
2022-11-19T12:37:29.723Z,6.80
2022-11-19T12:40:03.431Z,6.70
2022-11-19T12:42:30.577Z,6.70
2022-11-19T12:45:15.738Z,6.70
2022-11-19T12:47:48.775Z,6.60
2022-11-19T12:50:51.458Z,6.60
2022-11-19T12:53:42.239Z,6.60
2022-11-19T12:56:27.005Z,6.60
2022-11-19T12:59:39.434Z,6.60
2022-11-19T13:02:30.271Z,6.60
2022-11-19T13:05:11.559Z,6.70
2022-11-19T13:07:44.243Z,6.70
2022-11-19T13:10:23.117Z,6.70
2022-11-19T13:12:53.172Z,6.70
2022-11-19T13:15:26.000Z,6.70
2022-11-19T13:17:55.229Z,6.70
2022-11-19T13:20:26.621Z,6.70
2022-11-19T13:22:59.947Z,6.70
2022-11-19T13:25:35.296Z,6.70
2022-11-19T13:28:03.731Z,6.60
2022-11-19T13:30:32.114Z,6.60
2022-11-19T13:33:37.710Z,6.70
2022-11-19T13:36:23.416Z,6.70
2022-11-19T13:39:00.590Z,6.80
2022-11-19T13:41:31.483Z,6.70
2022-11-19T13:44:17.374Z,6.70
2022-11-19T13:46:52.567Z,6.70
2022-11-19T13:49:32.120Z,6.70
2022-11-19T13:52:08.523Z,6.70
2022-11-19T13:54:38.826Z,6.70
2022-11-19T13:57:07.550Z,8.40
2022-11-19T13:59:46.667Z,6.80
2022-11-19T14:02:20.162Z,6.80
2022-11-19T14:05:00.634Z,6.80
2022-11-19T14:07:48.398Z,6.80
2022-11-19T14:10:37.419Z,6.90
2022-11-19T14:13:28.616Z,6.90
2022-11-19T14:16:44.330Z,6.90
2022-11-19T14:19:33.234Z,6.90
2022-11-19T14:22:19.374Z,6.90
2022-11-19T14:25:04.597Z,6.80
2022-11-19T14:27:31.913Z,6.80
2022-11-19T14:30:18.979Z,6.70
2022-11-19T14:32:56.907Z,6.70
2022-11-19T14:35:31.463Z,6.70
2022-11-19T14:38:03.184Z,6.70
2022-11-19T14:40:35.483Z,6.60
2022-11-19T14:43:23.860Z,7.90
2022-11-19T14:46:05.242Z,7.80
2022-11-19T14:48:53.934Z,6.60
2022-11-19T14:51:38.975Z,6.40
2022-11-19T14:54:07.575Z,6.50
2022-11-19T14:56:36.570Z,6.50
2022-11-19T14:59:16.660Z,6.40
2022-11-19T15:02:01.204Z,6.50
2022-11-19T15:04:35.988Z,6.50
2022-11-19T15:07:03.108Z,6.50
2022-11-19T15:10:06.143Z,6.40
2022-11-19T15:12:46.415Z,6.40
2022-11-19T15:15:19.243Z,6.40
2022-11-19T15:18:00.674Z,6.40
2022-11-19T15:20:53.826Z,6.30
2022-11-19T15:23:28.709Z,6.20
2022-11-19T15:26:10.611Z,6.20
2022-11-19T15:28:55.390Z,6.20
2022-11-19T15:31:47.819Z,6.10
2022-11-19T15:35:09.761Z,6.10
2022-11-19T15:38:05.397Z,6.10
2022-11-19T15:40:33.992Z,6.10
2022-11-19T15:43:22.711Z,6.20
2022-11-19T15:46:13.762Z,6.20
2022-11-19T15:49:16.379Z,6.20
2022-11-19T15:52:17.861Z,6.20
2022-11-19T15:54:45.104Z,6.20
2022-11-19T15:57:26.738Z,6.20
2022-11-19T15:59:58.972Z,6.20
2022-11-19T16:02:33.929Z,6.20
2022-11-19T16:05:00.691Z,6.20
2022-11-19T16:07:28.782Z,6.10
2022-11-19T16:09:56.362Z,6.10
2022-11-19T16:12:44.169Z,6.10
2022-11-19T16:15:44.844Z,6.10
2022-11-19T16:18:16.374Z,6.10
2022-11-19T16:20:47.211Z,6.00
2022-11-19T16:23:20.720Z,6.00
2022-11-19T16:25:47.943Z,6.00
2022-11-19T16:28:19.275Z,5.90
2022-11-19T16:30:55.042Z,5.90
2022-11-19T16:33:27.198Z,6.00
2022-11-19T16:36:14.315Z,6.00
2022-11-19T16:38:43.684Z,5.90
2022-11-19T16:41:31.082Z,5.90
2022-11-19T16:43:58.599Z,6.00
2022-11-19T16:46:28.818Z,6.00
2022-11-19T16:48:57.501Z,5.90
2022-11-19T16:51:53.238Z,5.90
2022-11-19T16:54:48.980Z,6.00
2022-11-19T16:57:21.934Z,5.90
2022-11-19T16:59:51.287Z,6.00
2022-11-19T17:02:20.356Z,6.00
2022-11-19T17:04:49.307Z,6.00
2022-11-19T17:07:28.541Z,6.00
2022-11-19T17:10:13.695Z,6.00
2022-11-19T17:13:04.146Z,6.00
2022-11-19T17:15:40.079Z,5.90
2022-11-19T17:18:18.187Z,5.80
2022-11-19T17:20:46.329Z,5.80
2022-11-19T17:23:16.900Z,5.70
2022-11-19T17:25:55.209Z,5.70
2022-11-19T17:28:38.142Z,5.70
2022-11-19T17:31:16.289Z,5.70
2022-11-19T17:33:54.715Z,5.70
2022-11-19T17:36:22.353Z,5.70
2022-11-19T17:38:49.690Z,5.80
2022-11-19T17:41:39.694Z,5.70
2022-11-19T17:44:31.570Z,5.70
2022-11-19T17:46:58.874Z,5.70
2022-11-19T17:49:25.673Z,5.70
2022-11-19T17:51:53.143Z,5.70
2022-11-19T17:54:20.415Z,5.70
2022-11-19T17:56:47.587Z,5.60
2022-11-19T17:59:14.264Z,5.60
2022-11-19T18:01:41.005Z,5.60
2022-11-19T18:04:11.364Z,5.60
2022-11-19T18:06:38.361Z,5.60
2022-11-19T18:09:05.609Z,5.60
2022-11-19T18:11:32.719Z,5.60
2022-11-19T18:14:09.784Z,5.60
2022-11-19T18:16:42.620Z,5.60
2022-11-19T18:19:25.088Z,5.40
2022-11-19T18:21:52.523Z,5.50
2022-11-19T18:24:19.380Z,5.50
2022-11-19T18:26:46.231Z,5.50
2022-11-19T18:29:13.014Z,5.40
2022-11-19T18:31:46.037Z,5.40
2022-11-19T18:34:23.841Z,5.30
2022-11-19T18:36:50.856Z,5.30
2022-11-19T18:39:17.630Z,5.30
2022-11-19T18:41:44.442Z,5.30
2022-11-19T18:44:33.125Z,5.30
2022-11-19T18:47:08.239Z,5.40
2022-11-19T18:49:35.166Z,5.40
2022-11-19T18:52:02.877Z,5.40
2022-11-19T18:54:29.709Z,5.70
2022-11-19T18:56:56.500Z,5.40
2022-11-19T18:59:23.825Z,5.40
2022-11-19T19:01:55.549Z,5.50
2022-11-19T19:04:23.087Z,5.40
2022-11-19T19:06:50.238Z,5.50
2022-11-19T19:09:20.350Z,5.40
2022-11-19T19:12:12.284Z,5.50
2022-11-19T19:14:39.562Z,5.50
2022-11-19T19:17:06.313Z,5.50
2022-11-19T19:19:33.222Z,5.50
2022-11-19T19:22:00.448Z,5.50
2022-11-19T19:24:27.343Z,5.50
2022-11-19T19:26:54.181Z,5.40
2022-11-19T19:29:21.263Z,5.40
2022-11-19T19:31:48.245Z,5.40
2022-11-19T19:34:15.154Z,5.40
2022-11-19T19:36:47.606Z,5.40
2022-11-19T19:39:17.016Z,5.40
2022-11-19T19:41:43.870Z,5.40
2022-11-19T19:44:11.045Z,5.40
2022-11-19T19:46:38.009Z,5.40
2022-11-19T19:49:04.796Z,5.30
2022-11-19T19:51:32.729Z,5.40
2022-11-19T19:54:00.129Z,5.30
2022-11-19T19:56:32.138Z,5.40
2022-11-19T19:58:59.890Z,5.40
2022-11-19T20:01:29.322Z,5.40
2022-11-19T20:04:04.420Z,5.40
2022-11-19T20:06:35.271Z,5.40
2022-11-19T20:09:07.894Z,5.30
2022-11-19T20:11:36.048Z,5.30
2022-11-19T20:14:02.777Z,5.30
2022-11-19T20:16:30.942Z,5.30
2022-11-19T20:18:58.946Z,5.30
2022-11-19T20:21:36.107Z,5.30
2022-11-19T20:24:08.626Z,5.30
2022-11-19T20:26:38.770Z,5.30
2022-11-19T20:29:06.607Z,5.40
2022-11-19T20:31:34.432Z,5.40
2022-11-19T20:34:03.434Z,5.40
2022-11-19T20:36:33.999Z,5.40
2022-11-19T20:39:01.051Z,5.40
2022-11-19T20:41:46.697Z,5.40
2022-11-19T20:44:21.411Z,5.40
2022-11-19T20:46:56.230Z,5.40
2022-11-19T20:49:27.910Z,5.40
2022-11-19T20:51:55.074Z,5.40
2022-11-19T20:54:22.744Z,5.40
2022-11-19T20:56:51.044Z,5.40
2022-11-19T20:59:17.894Z,5.40
2022-11-19T21:01:44.838Z,5.40
2022-11-19T21:04:12.027Z,5.40
2022-11-19T21:06:38.981Z,5.40
2022-11-19T21:09:06.037Z,5.30
2022-11-19T21:11:33.265Z,5.40
2022-11-19T21:14:00.571Z,5.40
2022-11-19T21:16:28.979Z,5.40
2022-11-19T21:18:56.215Z,5.40
2022-11-19T21:21:24.284Z,5.30
2022-11-19T21:23:51.834Z,5.30
2022-11-19T21:26:20.841Z,5.30
2022-11-19T21:28:52.025Z,5.30
2022-11-19T21:31:37.657Z,5.30
2022-11-19T21:34:06.092Z,5.40
2022-11-19T21:36:33.009Z,5.40
2022-11-19T21:38:59.917Z,5.40
2022-11-19T21:41:26.598Z,5.40
2022-11-19T21:43:53.312Z,5.30
2022-11-19T21:46:20.007Z,5.30
2022-11-19T21:48:46.678Z,5.70
2022-11-19T21:51:13.404Z,5.30
2022-11-19T21:53:40.127Z,5.20
2022-11-19T21:56:07.582Z,5.30
2022-11-19T21:58:34.285Z,5.30
2022-11-19T22:01:02.175Z,5.30
2022-11-19T22:03:31.236Z,5.30
2022-11-19T22:06:08.750Z,5.20
2022-11-19T22:08:38.363Z,5.10
2022-11-19T22:11:26.366Z,5.10
2022-11-19T22:13:53.612Z,5.10
2022-11-19T22:16:20.912Z,5.10
2022-11-19T22:18:47.684Z,5.20
2022-11-19T22:21:14.380Z,5.20
2022-11-19T22:23:41.084Z,5.20
2022-11-19T22:26:10.349Z,5.20
2022-11-19T22:28:37.622Z,5.30
2022-11-19T22:31:04.433Z,5.30
2022-11-19T22:33:36.108Z,5.30
2022-11-19T22:36:09.573Z,5.30
2022-11-19T22:38:38.615Z,5.30
2022-11-19T22:41:07.831Z,5.30
2022-11-19T22:43:35.972Z,5.30
2022-11-19T22:46:03.062Z,5.30
2022-11-19T22:48:31.445Z,5.30
2022-11-19T22:50:58.769Z,5.30
2022-11-19T22:53:25.950Z,5.30
2022-11-19T22:55:52.711Z,5.30
2022-11-19T22:58:19.392Z,5.20
2022-11-19T23:00:48.448Z,5.20
2022-11-19T23:03:16.016Z,5.20
2022-11-19T23:05:52.844Z,5.20
2022-11-19T23:08:19.781Z,5.10
2022-11-19T23:10:47.298Z,5.10
2022-11-19T23:13:31.777Z,5.10
2022-11-19T23:16:03.175Z,5.00
2022-11-19T23:18:33.119Z,5.00
2022-11-19T23:21:02.441Z,5.00
2022-11-19T23:23:29.245Z,5.00
2022-11-19T23:26:00.208Z,4.90
2022-11-19T23:28:28.157Z,4.90
2022-11-19T23:30:54.850Z,4.90
2022-11-19T23:33:22.473Z,4.90
2022-11-19T23:35:49.175Z,4.90
2022-11-19T23:38:16.005Z,4.80
2022-11-19T23:40:42.649Z,4.80
2022-11-19T23:43:09.562Z,4.80
2022-11-19T23:45:36.438Z,4.80
2022-11-19T23:48:03.855Z,4.80
2022-11-19T23:50:30.842Z,4.80
2022-11-19T23:52:57.557Z,4.80
2022-11-19T23:55:24.336Z,4.80
2022-11-19T23:57:51.174Z,4.80
